sensor_id;sensor_type;location;lat;lon;timestamp;temperature;humidity
46123;DHT22;31856;-35.404;149.120;2023-08-20T01:42:07;15.10;56.20
46123;DHT22;31856;-35.404;149.120;2023-08-20T01:44:36;15.20;56.00
46123;DHT22;31856;-35.404;149.120;2023-08-20T01:47:06;15.30;55.80
46123;DHT22;31856;-35.404;149.120;2023-08-20T01:49:35;15.30;55.80
46123;DHT22;31856;-35.404;149.120;2023-08-20T01:52:05;15.40;56.10
46123;DHT22;31856;-35.404;149.120;2023-08-20T01:54:34;15.40;56.00
46123;DHT22;31856;-35.404;149.120;2023-08-20T01:57:04;15.50;55.70
46123;DHT22;31856;-35.404;149.120;2023-08-20T01:59:33;15.50;54.70
46123;DHT22;31856;-35.404;149.120;2023-08-20T02:02:03;15.60;54.50
46123;DHT22;31856;-35.404;149.120;2023-08-20T02:04:34;15.60;53.60
46123;DHT22;31856;-35.404;149.120;2023-08-20T02:07:03;15.70;51.60
46123;DHT22;31856;-35.404;149.120;2023-08-20T02:09:33;15.70;52.80
46123;DHT22;31856;-35.404;149.120;2023-08-20T02:12:04;15.80;53.50
46123;DHT22;31856;-35.404;149.120;2023-08-20T02:14:34;16.00;52.60
46123;DHT22;31856;-35.404;149.120;2023-08-20T02:17:03;16.10;52.50
46123;DHT22;31856;-35.404;149.120;2023-08-20T02:19:33;16.20;51.10
46123;DHT22;31856;-35.404;149.120;2023-08-20T02:22:03;16.20;51.60
46123;DHT22;31856;-35.404;149.120;2023-08-20T02:24:32;16.20;51.20
46123;DHT22;31856;-35.404;149.120;2023-08-20T02:27:02;16.20;50.50
46123;DHT22;31856;-35.404;149.120;2023-08-20T02:29:33;16.20;50.50
46123;DHT22;31856;-35.404;149.120;2023-08-20T02:32:02;16.30;50.80
46123;DHT22;31856;-35.404;149.120;2023-08-20T02:34:32;16.40;50.60
46123;DHT22;31856;-35.404;149.120;2023-08-20T02:37:01;16.50;50.00
46123;DHT22;31856;-35.404;149.120;2023-08-20T09:23:03;11.70;72.00
46123;DHT22;31856;-35.404;149.120;2023-08-20T09:25:33;11.70;72.10
46123;DHT22;31856;-35.404;149.120;2023-08-20T09:28:03;11.60;72.20
46123;DHT22;31856;-35.404;149.120;2023-08-20T09:30:33;11.60;72.20
46123;DHT22;31856;-35.404;149.120;2023-08-20T09:33:03;11.60;72.30
46123;DHT22;31856;-35.404;149.120;2023-08-20T09:35:33;11.60;72.40
46123;DHT22;31856;-35.404;149.120;2023-08-20T09:38:03;11.50;72.50
46123;DHT22;31856;-35.404;149.120;2023-08-20T09:40:32;11.50;72.50
46123;DHT22;31856;-35.404;149.120;2023-08-20T09:43:02;11.40;72.80
46123;DHT22;31856;-35.404;149.120;2023-08-20T09:45:31;11.40;72.90
46123;DHT22;31856;-35.404;149.120;2023-08-20T09:48:01;11.40;73.20
46123;DHT22;31856;-35.404;149.120;2023-08-20T09:50:35;11.30;73.40
46123;DHT22;31856;-35.404;149.120;2023-08-20T09:53:33;11.30;73.60
46123;DHT22;31856;-35.404;149.120;2023-08-20T09:56:03;11.20;73.70
46123;DHT22;31856;-35.404;149.120;2023-08-20T09:58:39;11.20;73.90
46123;DHT22;31856;-35.404;149.120;2023-08-20T10:01:11;11.10;74.30
46123;DHT22;31856;-35.404;149.120;2023-08-20T10:03:41;11.10;74.20
46123;DHT22;31856;-35.404;149.120;2023-08-20T10:06:11;11.00;74.30
46123;DHT22;31856;-35.404;149.120;2023-08-20T10:08:41;11.00;74.30
46123;DHT22;31856;-35.404;149.120;2023-08-20T10:11:11;10.90;74.80
46123;DHT22;31856;-35.404;149.120;2023-08-20T10:13:41;10.90;74.70
46123;DHT22;31856;-35.404;149.120;2023-08-20T10:16:11;10.80;74.80
46123;DHT22;31856;-35.404;149.120;2023-08-20T10:18:43;10.80;75.10
46123;DHT22;31856;-35.404;149.120;2023-08-20T10:21:13;10.80;75.10
46123;DHT22;31856;-35.404;149.120;2023-08-20T10:23:47;10.80;75.00
46123;DHT22;31856;-35.404;149.120;2023-08-20T10:26:17;10.70;75.40
46123;DHT22;31856;-35.404;149.120;2023-08-20T10:28:50;10.70;75.40
46123;DHT22;31856;-35.404;149.120;2023-08-20T10:31:25;10.60;75.50
46123;DHT22;31856;-35.404;149.120;2023-08-20T10:33:55;10.50;75.80
46123;DHT22;31856;-35.404;149.120;2023-08-20T10:36:29;10.50;75.70
46123;DHT22;31856;-35.404;149.120;2023-08-20T10:39:03;10.50;76.00
46123;DHT22;31856;-35.404;149.120;2023-08-20T10:41:34;10.40;76.10
46123;DHT22;31856;-35.404;149.120;2023-08-20T10:44:05;10.40;76.20
46123;DHT22;31856;-35.404;149.120;2023-08-20T10:46:36;10.30;76.30
46123;DHT22;31856;-35.404;149.120;2023-08-20T10:49:19;10.30;76.50
46123;DHT22;31856;-35.404;149.120;2023-08-20T10:51:49;10.30;76.80
46123;DHT22;31856;-35.404;149.120;2023-08-20T10:54:19;10.20;76.90
46123;DHT22;31856;-35.404;149.120;2023-08-20T10:56:57;10.20;77.10
46123;DHT22;31856;-35.404;149.120;2023-08-20T10:59:29;10.20;77.60
46123;DHT22;31856;-35.404;149.120;2023-08-20T11:01:59;10.20;77.70
46123;DHT22;31856;-35.404;149.120;2023-08-20T11:04:30;10.10;78.10
46123;DHT22;31856;-35.404;149.120;2023-08-20T11:07:03;10.10;78.00
46123;DHT22;31856;-35.404;149.120;2023-08-20T11:09:33;10.00;78.10
46123;DHT22;31856;-35.404;149.120;2023-08-20T11:12:04;10.00;78.20
46123;DHT22;31856;-35.404;149.120;2023-08-20T11:14:34;9.90;78.20
46123;DHT22;31856;-35.404;149.120;2023-08-20T11:17:04;9.90;78.50
